sensor_id;sensor_type;location;lat;lon;timestamp;pressure;altitude;pressure_sealevel;temperature;humidity
27294;BME280;14785;52.556;13.430;2023-03-14T00:00:37;98484.38;;;14.07;100.00
27294;BME280;14785;52.556;13.430;2023-03-14T00:03:02;98500.63;;;14.05;100.00
27294;BME280;14785;52.556;13.430;2023-03-14T00:05:28;98493.41;;;13.94;100.00
27294;BME280;14785;52.556;13.430;2023-03-14T00:07:55;98493.25;;;13.78;100.00
27294;BME280;14785;52.556;13.430;2023-03-14T00:10:21;98487.81;;;13.84;100.00
27294;BME280;14785;52.556;13.430;2023-03-14T00:12:46;98486.53;;;13.87;100.00
27294;BME280;14785;52.556;13.430;2023-03-14T00:15:12;98481.66;;;13.72;100.00
27294;BME280;14785;52.556;13.430;2023-03-14T00:17:38;98472.19;;;13.58;100.00
27294;BME280;14785;52.556;13.430;2023-03-14T00:20:05;98464.94;;;13.77;100.00
27294;BME280;14785;52.556;13.430;2023-03-14T00:22:35;98452.59;;;13.76;100.00
27294;BME280;14785;52.556;13.430;2023-03-14T00:25:01;98444.34;;;13.66;100.00
27294;BME280;14785;52.556;13.430;2023-03-14T00:27:27;98445.72;;;13.68;100.00
27294;BME280;14785;52.556;13.430;2023-03-14T00:29:52;98435.50;;;13.54;100.00
27294;BME280;14785;52.556;13.430;2023-03-14T00:32:18;98448.59;;;13.55;100.00
27294;BME280;14785;52.556;13.430;2023-03-14T00:34:43;98446.84;;;13.49;100.00
27294;BME280;14785;52.556;13.430;2023-03-14T00:37:09;98428.38;;;13.48;100.00
27294;BME280;14785;52.556;13.430;2023-03-14T00:39:34;98430.84;;;13.61;100.00
27294;BME280;14785;52.556;13.430;2023-03-14T00:42:00;98408.78;;;13.54;100.00
27294;BME280;14785;52.556;13.430;2023-03-14T00:44:26;98408.09;;;13.58;100.00
27294;BME280;14785;52.556;13.430;2023-03-14T00:46:52;98422.84;;;13.61;100.00
27294;BME280;14785;52.556;13.430;2023-03-14T00:49:17;98432.91;;;13.47;100.00
27294;BME280;14785;52.556;13.430;2023-03-14T00:51:43;98419.28;;;13.25;100.00
27294;BME280;14785;52.556;13.430;2023-03-14T00:54:09;98426.63;;;13.00;100.00
27294;BME280;14785;52.556;13.430;2023-03-14T00:56:35;98416.28;;;13.04;100.00
27294;BME280;14785;52.556;13.430;2023-03-14T00:59:00;98409.44;;;13.26;100.00
27294;BME280;14785;52.556;13.430;2023-03-14T01:01:26;98406.03;;;13.19;100.00
27294;BME280;14785;52.556;13.430;2023-03-14T01:03:52;98397.75;;;13.09;100.00
27294;BME280;14785;52.556;13.430;2023-03-14T01:06:24;98388.16;;;13.19;100.00
27294;BME280;14785;52.556;13.430;2023-03-14T01:08:50;98388.53;;;13.23;100.00
27294;BME280;14785;52.556;13.430;2023-03-14T01:11:17;98390.91;;;13.13;100.00
27294;BME280;14785;52.556;13.430;2023-03-14T01:13:44;98382.75;;;13.26;100.00
27294;BME280;14785;52.556;13.430;2023-03-14T01:16:11;98387.53;;;13.06;100.00
27294;BME280;14785;52.556;13.430;2023-03-14T01:18:38;98393.03;;;13.11;100.00
27294;BME280;14785;52.556;13.430;2023-03-14T01:21:13;98408.69;;;13.19;100.00
27294;BME280;14785;52.556;13.430;2023-03-14T01:23:38;98422.63;;;13.21;100.00
27294;BME280;14785;52.556;13.430;2023-03-14T01:26:04;98441.41;;;12.96;100.00
27294;BME280;14785;52.556;13.430;2023-03-14T01:28:33;98452.31;;;13.13;100.00
27294;BME280;14785;52.556;13.430;2023-03-14T01:31:05;98452.63;;;13.05;100.00
27294;BME280;14785;52.556;13.430;2023-03-14T01:33:31;98451.59;;;13.06;100.00
27294;BME280;14785;52.556;13.430;2023-03-14T01:35:56;98459.63;;;13.17;100.00
27294;BME280;14785;52.556;13.430;2023-03-14T01:38:21;98456.16;;;13.17;100.00
27294;BME280;14785;52.556;13.430;2023-03-14T01:40:47;98456.03;;;13.12;100.00
27294;BME280;14785;52.556;13.430;2023-03-14T01:43:16;98462.72;;;13.03;100.00
27294;BME280;14785;52.556;13.430;2023-03-14T01:48:32;98469.22;;;13.07;100.00
27294;BME280;14785;52.556;13.430;2023-03-14T01:51:00;98465.06;;;13.11;100.00
27294;BME280;14785;52.556;13.430;2023-03-14T01:53:28;98480.41;;;13.15;100.00
27294;BME280;14785;52.556;13.430;2023-03-14T01:55:55;98479.59;;;13.15;100.00
27294;BME280;14785;52.556;13.430;2023-03-14T01:58:25;98472.19;;;12.99;100.00
27294;BME280;14785;52.556;13.430;2023-03-14T02:00:53;98465.16;;;13.04;100.00
27294;BME280;14785;52.556;13.430;2023-03-14T02:03:20;98459.28;;;13.14;100.00
27294;BME280;14785;52.556;13.430;2023-03-14T02:05:49;98452.31;;;13.13;100.00
27294;BME280;14785;52.556;13.430;2023-03-14T02:08:17;98440.63;;;12.96;100.00
27294;BME280;14785;52.556;13.430;2023-03-14T02:10:46;98451.72;;;12.93;100.00
27294;BME280;14785;52.556;13.430;2023-03-14T02:13:14;98441.00;;;12.99;100.00
27294;BME280;14785;52.556;13.430;2023-03-14T02:15:40;98438.84;;;13.08;100.00
27294;BME280;14785;52.556;13.430;2023-03-14T02:18:06;98425.81;;;13.00;100.00
27294;BME280;14785;52.556;13.430;2023-03-14T02:23:04;98425.81;;;13.00;100.00
27294;BME280;14785;52.556;13.430;2023-03-14T02:28:14;98415.13;;;13.00;100.00
27294;BME280;14785;52.556;13.430;2023-03-14T02:30:42;98405.91;;;13.14;100.00
27294;BME280;14785;52.556;13.430;2023-03-14T02:33:11;98410.06;;;13.10;100.00
27294;BME280;14785;52.556;13.430;2023-03-14T02:36:05;98412.31;;;13.24;100.00
27294;BME280;14785;52.556;13.430;2023-03-14T02:41:00;98401.75;;;13.18;100.00
27294;BME280;14785;52.556;13.430;2023-03-14T02:43:26;98401.09;;;13.04;100.00
27294;BME280;14785;52.556;13.430;2023-03-14T02:45:52;98399.72;;;13.02;100.00
27294;BME280;14785;52.556;13.430;2023-03-14T02:48:25;98398.94;;;13.13;100.00
27294;BME280;14785;52.556;13.430;2023-03-14T02:50:57;98397.91;;;12.96;100.00
27294;BME280;14785;52.556;13.430;2023-03-14T02:53:32;98384.66;;;13.07;100.00
27294;BME280;14785;52.556;13.430;2023-03-14T02:55:58;98381.38;;;13.05;100.00
27294;BME280;14785;52.556;13.430;2023-03-14T02:58:23;98375.13;;;12.82;100.00
27294;BME280;14785;52.556;13.430;2023-03-14T03:00:49;98370.16;;;12.85;100.00
27294;BME280;14785;52.556;13.430;2023-03-14T03:03:15;98361.34;;;12.96;100.00
27294;BME280;14785;52.556;13.430;2023-03-14T03:05:40;98347.75;;;12.86;100.00
27294;BME280;14785;52.556;13.430;2023-03-14T03:08:08;98344.72;;;12.83;100.00
27294;BME280;14785;52.556;13.430;2023-03-14T03:10:34;98335.56;;;12.79;100.00
27294;BME280;14785;52.556;13.430;2023-03-14T03:12:59;98326.84;;;12.72;100.00
27294;BME280;14785;52.556;13.430;2023-03-14T03:15:25;98324.69;;;12.92;100.00
27294;BME280;14785;52.556;13.430;2023-03-14T03:17:51;98308.44;;;12.82;100.00
27294;BME280;14785;52.556;13.430;2023-03-14T03:20:17;98310.66;;;12.85;100.00
27294;BME280;14785;52.556;13.430;2023-03-14T03:22:43;98300.56;;;12.87;100.00
27294;BME280;14785;52.556;13.430;2023-03-14T03:25:09;98311.47;;;12.85;100.00
27294;BME280;14785;52.556;13.430;2023-03-14T03:27:36;98308.63;;;12.69;100.00
27294;BME280;14785;52.556;13.430;2023-03-14T03:30:03;98323.13;;;12.73;100.00
27294;BME280;14785;52.556;13.430;2023-03-14T03:32:30;98325.13;;;12.77;100.00
27294;BME280;14785;52.556;13.430;2023-03-14T03:34:55;98328.47;;;12.73;100.00
27294;BME280;14785;52.556;13.430;2023-03-14T03:37:21;98328.09;;;12.69;100.00
27294;BME280;14785;52.556;13.430;2023-03-14T03:39:46;98333.09;;;12.66;100.00
27294;BME280;14785;52.556;13.430;2023-03-14T03:42:12;98331.88;;;12.62;100.00
27294;BME280;14785;52.556;13.430;2023-03-14T03:44:37;98337.06;;;12.75;100.00
27294;BME280;14785;52.556;13.430;2023-03-14T03:47:02;98337.38;;;12.67;100.00
27294;BME280;14785;52.556;13.430;2023-03-14T03:49:31;98340.41;;;12.70;100.00
27294;BME280;14785;52.556;13.430;2023-03-14T03:51:58;98327.84;;;12.59;100.00
27294;BME280;14785;52.556;13.430;2023-03-14T03:54:24;98325.53;;;12.63;100.00
27294;BME280;14785;52.556;13.430;2023-03-14T03:56:50;98317.09;;;12.66;100.00
27294;BME280;14785;52.556;13.430;2023-03-14T03:59:16;98320.59;;;12.78;100.00
27294;BME280;14785;52.556;13.430;2023-03-14T04:01:45;98312.19;;;12.63;100.00
27294;BME280;14785;52.556;13.430;2023-03-14T04:04:11;98308.94;;;12.61;100.00
27294;BME280;14785;52.556;13.430;2023-03-14T04:06:37;98326.47;;;12.68;100.00
27294;BME280;14785;52.556;13.430;2023-03-14T04:09:03;98330.56;;;12.53;100.00
27294;BME280;14785;52.556;13.430;2023-03-14T04:11:28;98327.19;;;12.46;100.00
27294;BME280;14785;52.556;13.430;2023-03-14T04:13:54;98307.19;;;12.55;100.00
27294;BME280;14785;52.556;13.430;2023-03-14T04:16:21;98321.22;;;12.62;100.00
27294;BME280;14785;52.556;13.430;2023-03-14T04:18:47;98315.88;;;12.62;100.00
27294;BME280;14785;52.556;13.430;2023-03-14T04:21:13;98323.41;;;12.53;100.00
27294;BME280;14785;52.556;13.430;2023-03-14T04:23:38;98315.81;;;12.68;100.00
27294;BME280;14785;52.556;13.430;2023-03-14T04:26:04;98312.66;;;12.60;100.00
27294;BME280;14785;52.556;13.430;2023-03-14T04:28:30;98313.81;;;12.64;100.00
27294;BME280;14785;52.556;13.430;2023-03-14T04:30:55;98311.00;;;12.59;100.00
27294;BME280;14785;52.556;13.430;2023-03-14T04:33:21;98310.84;;;12.72;100.00
27294;BME280;14785;52.556;13.430;2023-03-14T04:35:46;98303.78;;;12.48;100.00
27294;BME280;14785;52.556;13.430;2023-03-14T04:38:12;98307.13;;;12.73;100.00
27294;BME280;14785;52.556;13.430;2023-03-14T04:40:41;98294.84;;;12.72;100.00
27294;BME280;14785;52.556;13.430;2023-03-14T04:43:10;98282.59;;;12.53;100.00
27294;BME280;14785;52.556;13.430;2023-03-14T04:45:35;98285.34;;;12.76;100.00
27294;BME280;14785;52.556;13.430;2023-03-14T04:48:00;98284.63;;;12.69;100.00
27294;BME280;14785;52.556;13.430;2023-03-14T04:50:26;98266.72;;;12.58;100.00
27294;BME280;14785;52.556;13.430;2023-03-14T04:52:51;98269.88;;;12.66;100.00
27294;BME280;14785;52.556;13.430;2023-03-14T04:55:17;98261.56;;;12.74;100.00
27294;BME280;14785;52.556;13.430;2023-03-14T04:57:42;98265.13;;;12.57;100.00
27294;BME280;14785;52.556;13.430;2023-03-14T05:00:08;98254.44;;;12.57;100.00
27294;BME280;14785;52.556;13.430;2023-03-14T05:02:35;98264.66;;;12.60;100.00
27294;BME280;14785;52.556;13.430;2023-03-14T05:05:01;98264.66;;;12.60;100.00
27294;BME280;14785;52.556;13.430;2023-03-14T05:07:26;98267.31;;;12.60;100.00
27294;BME280;14785;52.556;13.430;2023-03-14T05:09:52;98267.66;;;12.63;100.00
27294;BME280;14785;52.556;13.430;2023-03-14T05:12:19;98265.56;;;12.54;100.00
27294;BME280;14785;52.556;13.430;2023-03-14T05:14:44;98269.44;;;12.40;100.00
27294;BME280;14785;52.556;13.430;2023-03-14T05:17:10;98269.84;;;12.55;100.00
27294;BME280;14785;52.556;13.430;2023-03-14T05:19:36;98258.31;;;12.43;100.00
27294;BME280;14785;52.556;13.430;2023-03-14T05:22:02;98253.53;;;12.63;100.00
27294;BME280;14785;52.556;13.430;2023-03-14T05:24:27;98257.22;;;12.62;100.00
27294;BME280;14785;52.556;13.430;2023-03-14T05:26:53;98235.78;;;12.57;100.00
27294;BME280;14785;52.556;13.430;2023-03-14T05:29:18;98241.13;;;12.68;100.00
27294;BME280;14785;52.556;13.430;2023-03-14T05:31:44;98236.56;;;12.57;100.00
27294;BME280;14785;52.556;13.430;2023-03-14T05:34:09;98233.63;;;12.36;100.00
27294;BME280;14785;52.556;13.430;2023-03-14T05:36:35;98240.53;;;12.55;100.00
27294;BME280;14785;52.556;13.430;2023-03-14T05:39:00;98234.97;;;12.68;100.00
27294;BME280;14785;52.556;13.430;2023-03-14T05:41:26;98235.88;;;12.62;100.00
27294;BME280;14785;52.556;13.430;2023-03-14T05:43:51;98230.84;;;12.72;100.00
27294;BME280;14785;52.556;13.430;2023-03-14T05:46:17;98229.41;;;12.58;100.00
27294;BME280;14785;52.556;13.430;2023-03-14T05:48:42;98244.25;;;12.65;100.00
27294;BME280;14785;52.556;13.430;2023-03-14T05:51:08;98240.47;;;12.73;100.00
27294;BME280;14785;52.556;13.430;2023-03-14T05:53:33;98235.88;;;12.62;100.00
27294;BME280;14785;52.556;13.430;2023-03-14T05:55:59;98233.13;;;12.68;100.00
27294;BME280;14785;52.556;13.430;2023-03-14T05:58:24;98238.09;;;12.65;100.00
27294;BME280;14785;52.556;13.430;2023-03-14T06:00:50;98222.00;;;12.60;100.00
27294;BME280;14785;52.556;13.430;2023-03-14T06:03:16;98232.53;;;12.66;100.00
27294;BME280;14785;52.556;13.430;2023-03-14T06:05:41;98222.91;;;12.54;100.00
27294;BME280;14785;52.556;13.430;2023-03-14T06:08:07;98225.69;;;12.59;100.00
27294;BME280;14785;52.556;13.430;2023-03-14T06:10:32;98232.28;;;12.56;100.00
27294;BME280;14785;52.556;13.430;2023-03-14T06:12:58;98223.91;;;12.41;100.00
27294;BME280;14785;52.556;13.430;2023-03-14T06:15:25;98220.63;;;12.69;100.00
27294;BME280;14785;52.556;13.430;2023-03-14T06:17:54;98218.72;;;12.58;100.00
27294;BME280;14785;52.556;13.430;2023-03-14T06:20:20;98226.47;;;12.48;100.00
27294;BME280;14785;52.556;13.430;2023-03-14T06:22:45;98234.06;;;12.62;100.00
27294;BME280;14785;52.556;13.430;2023-03-14T06:25:10;98226.13;;;12.56;100.00
27294;BME280;14785;52.556;13.430;2023-03-14T06:27:36;98219.81;;;12.68;100.00
27294;BME280;14785;52.556;13.430;2023-03-14T06:30:02;98216.09;;;12.69;100.00
27294;BME280;14785;52.556;13.430;2023-03-14T06:32:28;98217.16;;;12.80;100.00
27294;BME280;14785;52.556;13.430;2023-03-14T06:34:53;98220.41;;;12.82;100.00
27294;BME280;14785;52.556;13.430;2023-03-14T06:37:19;98229.00;;;12.84;100.00
27294;BME280;14785;52.556;13.430;2023-03-14T06:39:44;98224.59;;;12.78;100.00
27294;BME280;14785;52.556;13.430;2023-03-14T06:42:09;98224.59;;;12.78;100.00
27294;BME280;14785;52.556;13.430;2023-03-14T06:44:35;98227.50;;;12.88;100.00
27294;BME280;14785;52.556;13.430;2023-03-14T06:47:01;98234.22;;;12.90;100.00
27294;BME280;14785;52.556;13.430;2023-03-14T06:49:26;98242.06;;;13.03;100.00
27294;BME280;14785;52.556;13.430;2023-03-14T06:51:52;98244.44;;;12.93;100.00
27294;BME280;14785;52.556;13.430;2023-03-14T06:54:17;98248.50;;;12.96;100.00
27294;BME280;14785;52.556;13.430;2023-03-14T06:56:43;98235.22;;;13.07;100.00
27294;BME280;14785;52.556;13.430;2023-03-14T06:59:10;98238.22;;;12.99;100.00
27294;BME280;14785;52.556;13.430;2023-03-14T07:01:36;98242.13;;;12.97;100.00
27294;BME280;14785;52.556;13.430;2023-03-14T07:04:01;98250.53;;;13.00;100.00
27294;BME280;14785;52.556;13.430;2023-03-14T07:06:27;98249.28;;;13.26;100.00
27294;BME280;14785;52.556;13.430;2023-03-14T07:08:54;98258.78;;;13.33;100.00
27294;BME280;14785;52.556;13.430;2023-03-14T07:11:21;98262.38;;;13.27;100.00
27294;BME280;14785;52.556;13.430;2023-03-14T07:13:47;98267.69;;;13.16;100.00
27294;BME280;14785;52.556;13.430;2023-03-14T07:16:13;98256.00;;;13.17;100.00
27294;BME280;14785;52.556;13.430;2023-03-14T07:18:38;98269.66;;;13.09;100.00
27294;BME280;14785;52.556;13.430;2023-03-14T07:21:05;98267.59;;;13.11;100.00
27294;BME280;14785;52.556;13.430;2023-03-14T07:23:31;98269.34;;;13.17;100.00
27294;BME280;14785;52.556;13.430;2023-03-14T07:25:56;98269.22;;;13.12;100.00
27294;BME280;14785;52.556;13.430;2023-03-14T07:28:22;98266.88;;;13.04;100.00
27294;BME280;14785;52.556;13.430;2023-03-14T07:30:48;98282.00;;;13.33;100.00
27294;BME280;14785;52.556;13.430;2023-03-14T07:33:15;98271.78;;;13.30;100.00
27294;BME280;14785;52.556;13.430;2023-03-14T07:35:41;98273.63;;;13.18;100.00
27294;BME280;14785;52.556;13.430;2023-03-14T07:38:06;98278.41;;;13.27;100.00
27294;BME280;14785;52.556;13.430;2023-03-14T07:40:32;98277.06;;;13.07;100.00
27294;BME280;14785;52.556;13.430;2023-03-14T07:42:57;98281.97;;;13.10;100.00
27294;BME280;14785;52.556;13.430;2023-03-14T07:45:23;98283.56;;;12.99;100.00
27294;BME280;14785;52.556;13.430;2023-03-14T07:47:48;98284.97;;;13.02;100.00
27294;BME280;14785;52.556;13.430;2023-03-14T07:50:13;98280.31;;;12.97;100.00
27294;BME280;14785;52.556;13.430;2023-03-14T07:52:39;98288.81;;;13.06;100.00
27294;BME280;14785;52.556;13.430;2023-03-14T07:55:05;98296.59;;;13.19;100.00
27294;BME280;14785;52.556;13.430;2023-03-14T07:57:31;98288.03;;;13.17;100.00
27294;BME280;14785;52.556;13.430;2023-03-14T07:59:56;98289.88;;;13.39;100.00
27294;BME280;14785;52.556;13.430;2023-03-14T08:02:22;98284.06;;;13.08;100.00
27294;BME280;14785;52.556;13.430;2023-03-14T08:04:49;98286.63;;;13.26;100.00
27294;BME280;14785;52.556;13.430;2023-03-14T08:07:14;98271.97;;;13.05;100.00
27294;BME280;14785;52.556;13.430;2023-03-14T08:09:40;98272.13;;;13.45;100.00
27294;BME280;14785;52.556;13.430;2023-03-14T08:12:06;98265.41;;;13.54;100.00
27294;BME280;14785;52.556;13.430;2023-03-14T08:14:32;98256.78;;;13.75;100.00
27294;BME280;14785;52.556;13.430;2023-03-14T08:16:57;98247.34;;;13.84;100.00
27294;BME280;14785;52.556;13.430;2023-03-14T08:19:23;98249.28;;;14.00;100.00
27294;BME280;14785;52.556;13.430;2023-03-14T08:21:48;98261.19;;;13.81;100.00
27294;BME280;14785;52.556;13.430;2023-03-14T08:24:14;98255.38;;;13.84;100.00
27294;BME280;14785;52.556;13.430;2023-03-14T08:26:39;98262.66;;;14.00;100.00
27294;BME280;14785;52.556;13.430;2023-03-14T08:29:06;98253.31;;;14.14;100.00
27294;BME280;14785;52.556;13.430;2023-03-14T08:31:34;98250.97;;;14.18;100.00
27294;BME280;14785;52.556;13.430;2023-03-14T08:33:59;98264.19;;;13.85;100.00
27294;BME280;14785;52.556;13.430;2023-03-14T08:36:25;98261.28;;;13.86;100.00
27294;BME280;14785;52.556;13.430;2023-03-14T08:38:50;98265.31;;;14.00;100.00
27294;BME280;14785;52.556;13.430;2023-03-14T08:41:16;98262.44;;;13.90;100.00
27294;BME280;14785;52.556;13.430;2023-03-14T08:43:41;98273.34;;;14.00;100.00
27294;BME280;14785;52.556;13.430;2023-03-14T08:46:07;98277.91;;;13.77;100.00
27294;BME280;14785;52.556;13.430;2023-03-14T08:48:32;98275.00;;;13.78;100.00
27294;BME280;14785;52.556;13.430;2023-03-14T08:51:06;98280.13;;;13.68;100.00
27294;BME280;14785;52.556;13.430;2023-03-14T08:53:32;98274.88;;;13.85;100.00
27294;BME280;14785;52.556;13.430;2023-03-14T08:55:57;98284.16;;;14.05;100.00
27294;BME280;14785;52.556;13.430;2023-03-14T08:58:22;98290.00;;;13.68;100.00
27294;BME280;14785;52.556;13.430;2023-03-14T09:00:49;98289.75;;;13.81;100.00
27294;BME280;14785;52.556;13.430;2023-03-14T09:03:14;98301.13;;;13.53;100.00
27294;BME280;14785;52.556;13.430;2023-03-14T09:05:40;98297.44;;;13.54;100.00
27294;BME280;14785;52.556;13.430;2023-03-14T09:08:05;98297.97;;;14.02;100.00
27294;BME280;14785;52.556;13.430;2023-03-14T09:10:31;98298.00;;;13.79;100.00
27294;BME280;14785;52.556;13.430;2023-03-14T09:12:56;98283.63;;;13.57;100.00
27294;BME280;14785;52.556;13.430;2023-03-14T09:15:23;98287.44;;;13.61;100.00
27294;BME280;14785;52.556;13.430;2023-03-14T09:17:49;98275.25;;;14.16;100.00
27294;BME280;14785;52.556;13.430;2023-03-14T09:20:14;98262.91;;;14.66;100.00
27294;BME280;14785;52.556;13.430;2023-03-14T09:22:40;98261.88;;;14.39;100.00
27294;BME280;14785;52.556;13.430;2023-03-14T09:25:06;98254.75;;;14.05;100.00
27294;BME280;14785;52.556;13.430;2023-03-14T09:27:31;98258.41;;;14.27;100.00
27294;BME280;14785;52.556;13.430;2023-03-14T09:29:57;98247.38;;;14.24;100.00
27294;BME280;14785;52.556;13.430;2023-03-14T09:32:22;98245.44;;;14.64;100.00
27294;BME280;14785;52.556;13.430;2023-03-14T09:34:47;98240.53;;;14.72;100.00
27294;BME280;14785;52.556;13.430;2023-03-14T09:37:14;98247.50;;;14.73;100.00
27294;BME280;14785;52.556;13.430;2023-03-14T09:39:41;98246.53;;;14.79;100.00
27294;BME280;14785;52.556;13.430;2023-03-14T09:42:10;98239.25;;;15.24;100.00
27294;BME280;14785;52.556;13.430;2023-03-14T09:45:03;98239.75;;;15.21;100.00
27294;BME280;14785;52.556;13.430;2023-03-14T09:47:27;98244.69;;;14.96;100.00
27294;BME280;14785;52.556;13.430;2023-03-14T09:49:53;98234.88;;;15.18;100.00
27294;BME280;14785;52.556;13.430;2023-03-14T09:52:23;98251.50;;;14.87;100.00
27294;BME280;14785;52.556;13.430;2023-03-14T09:57:20;98247.84;;;14.77;100.00
27294;BME280;14785;52.556;13.430;2023-03-14T09:59:48;98248.16;;;14.80;100.00
27294;BME280;14785;52.556;13.430;2023-03-14T10:02:18;98246.16;;;14.59;100.00
27294;BME280;14785;52.556;13.430;2023-03-14T10:04:46;98248.72;;;14.82;100.00
27294;BME280;14785;52.556;13.430;2023-03-14T10:07:17;98251.53;;;14.59;100.00
27294;BME280;14785;52.556;13.430;2023-03-14T10:09:48;98259.50;;;14.71;100.00
27294;BME280;14785;52.556;13.430;2023-03-14T10:12:15;98254.47;;;14.74;100.00
27294;BME280;14785;52.556;13.430;2023-03-14T10:14:50;98256.00;;;14.70;100.00
27294;BME280;14785;52.556;13.430;2023-03-14T10:17:18;98259.53;;;14.59;100.00
27294;BME280;14785;52.556;13.430;2023-03-14T10:19:57;98258.22;;;14.73;100.00
27294;BME280;14785;52.556;13.430;2023-03-14T10:22:26;98256.66;;;14.77;100.00
27294;BME280;14785;52.556;13.430;2023-03-14T10:24:56;98261.53;;;14.80;100.00
27294;BME280;14785;52.556;13.430;2023-03-14T10:27:30;98264.41;;;14.90;100.00
27294;BME280;14785;52.556;13.430;2023-03-14T10:29:58;98265.66;;;14.71;100.00
27294;BME280;14785;52.556;13.430;2023-03-14T10:32:36;98267.28;;;14.72;100.00
27294;BME280;14785;52.556;13.430;2023-03-14T10:35:30;98277.97;;;14.56;100.00
27294;BME280;14785;52.556;13.430;2023-03-14T10:38:00;98268.81;;;14.68;100.00
27294;BME280;14785;52.556;13.430;2023-03-14T10:40:34;98270.47;;;14.58;100.00
27294;BME280;14785;52.556;13.430;2023-03-14T10:43:04;98262.41;;;14.69;100.00
27294;BME280;14785;52.556;13.430;2023-03-14T10:45:38;98265.38;;;14.84;100.00
27294;BME280;14785;52.556;13.430;2023-03-14T10:48:24;98260.91;;;15.06;100.00
27294;BME280;14785;52.556;13.430;2023-03-14T10:53:33;98261.66;;;15.18;100.00
27294;BME280;14785;52.556;13.430;2023-03-14T10:56:02;98262.13;;;15.15;100.00
27294;BME280;14785;52.556;13.430;2023-03-14T10:58:31;98262.47;;;15.02;100.00
27294;BME280;14785;52.556;13.430;2023-03-14T11:01:11;98267.22;;;14.39;100.00
27294;BME280;14785;52.556;13.430;2023-03-14T11:03:43;98269.91;;;15.00;100.00
27294;BME280;14785;52.556;13.430;2023-03-14T11:11:22;98263.25;;;14.86;100.00
27294;BME280;14785;52.556;13.430;2023-03-14T11:16:52;98260.75;;;14.52;100.00
27294;BME280;14785;52.556;13.430;2023-03-14T11:22:48;98261.25;;;14.65;100.00
27294;BME280;14785;52.556;13.430;2023-03-14T11:41:01;98242.78;;;14.64;100.00
27294;BME280;14785;52.556;13.430;2023-03-14T11:43:35;98252.75;;;14.68;100.00
27294;BME280;14785;52.556;13.430;2023-03-14T11:46:20;98260.50;;;14.81;100.00
27294;BME280;14785;52.556;13.430;2023-03-14T11:49:06;98243.47;;;14.71;100.00
27294;BME280;14785;52.556;13.430;2023-03-14T11:51:39;98248.09;;;14.75;100.00
27294;BME280;14785;52.556;13.430;2023-03-14T11:54:20;98256.69;;;14.49;100.00
27294;BME280;14785;52.556;13.430;2023-03-14T11:56:55;98244.56;;;14.58;100.00
27294;BME280;14785;52.556;13.430;2023-03-14T11:59:27;98246.03;;;14.66;100.00
27294;BME280;14785;52.556;13.430;2023-03-14T12:07:23;98245.22;;;14.65;100.00
27294;BME280;14785;52.556;13.430;2023-03-14T12:09:53;98236.78;;;14.57;100.00
27294;BME280;14785;52.556;13.430;2023-03-14T12:12:22;98238.56;;;14.51;100.00
27294;BME280;14785;52.556;13.430;2023-03-14T12:14:57;98232.44;;;14.84;100.00
27294;BME280;14785;52.556;13.430;2023-03-14T12:17:39;98237.91;;;14.61;100.00
27294;BME280;14785;52.556;13.430;2023-03-14T12:20:06;98244.25;;;14.71;100.00
27294;BME280;14785;52.556;13.430;2023-03-14T12:25:21;98239.22;;;14.58;100.00
27294;BME280;14785;52.556;13.430;2023-03-14T12:35:36;98222.38;;;14.91;100.00
27294;BME280;14785;52.556;13.430;2023-03-14T12:38:04;98221.72;;;15.17;100.00
27294;BME280;14785;52.556;13.430;2023-03-14T12:40:36;98215.88;;;15.37;100.00
27294;BME280;14785;52.556;13.430;2023-03-14T12:43:10;98223.28;;;15.29;100.00
27294;BME280;14785;52.556;13.430;2023-03-14T12:48:45;98214.03;;;15.20;100.00
27294;BME280;14785;52.556;13.430;2023-03-14T12:51:16;98221.72;;;15.00;100.00
27294;BME280;14785;52.556;13.430;2023-03-14T13:02:23;98220.50;;;15.24;100.00
27294;BME280;14785;52.556;13.430;2023-03-14T13:04:52;98211.16;;;15.44;100.00
27294;BME280;14785;52.556;13.430;2023-03-14T13:12:27;98249.22;;;14.35;100.00
27294;BME280;14785;52.556;13.430;2023-03-14T13:14:58;98247.03;;;14.20;100.00
27294;BME280;14785;52.556;13.430;2023-03-14T13:17:33;98248.22;;;14.01;100.00
27294;BME280;14785;52.556;13.430;2023-03-14T13:20:23;98246.78;;;13.82;100.00
27294;BME280;14785;52.556;13.430;2023-03-14T13:22:48;98246.41;;;13.90;100.00
27294;BME280;14785;52.556;13.430;2023-03-14T13:25:15;98241.81;;;14.14;100.00
27294;BME280;14785;52.556;13.430;2023-03-14T13:27:45;98236.28;;;14.04;100.00
27294;BME280;14785;52.556;13.430;2023-03-14T13:30:18;98235.50;;;13.80;100.00
27294;BME280;14785;52.556;13.430;2023-03-14T13:32:46;98232.00;;;13.91;100.00
27294;BME280;14785;52.556;13.430;2023-03-14T13:35:25;98213.78;;;14.72;100.00
27294;BME280;14785;52.556;13.430;2023-03-14T13:37:54;98204.31;;;15.53;100.00
27294;BME280;14785;52.556;13.430;2023-03-14T13:40:25;98187.94;;;15.49;100.00
27294;BME280;14785;52.556;13.430;2023-03-14T13:43:01;98196.09;;;16.77;100.00
27294;BME280;14785;52.556;13.430;2023-03-14T13:45:28;98183.81;;;17.59;100.00
27294;BME280;14785;52.556;13.430;2023-03-14T13:47:53;98172.66;;;17.92;100.00
27294;BME280;14785;52.556;13.430;2023-03-14T13:50:20;98180.94;;;18.87;100.00
27294;BME280;14785;52.556;13.430;2023-03-14T13:52:45;98175.38;;;17.97;100.00
27294;BME280;14785;52.556;13.430;2023-03-14T13:55:17;98186.03;;;17.31;100.00
27294;BME280;14785;52.556;13.430;2023-03-14T13:57:48;98180.94;;;16.61;100.00